Time;durP1;ratioP1;P1;durP2;ratioP2;P2;SDS_P1;SDS_P2;PMS_P1;PMS_P2;Temp;Humidity;BMP_temperature;BMP_pressure;BME280_temperature;BME280_humidity;BME280_pressure;Samples;Min_cycle;Max_cycle;Signal;HPM_P1;HPM_P2
2022/02/26 00:00:58;;;;;;;30.79;20.80;;;;;;;7.08;69.78;100764.01;452678;116;923034;-79
2022/02/26 00:02:01;;;;;;;28.36;21.24;;;;;;;7.08;69.77;100761.30;452224;116;927430;-79
2022/02/26 00:03:08;;;;;;;26.22;20.31;;;;;;;7.08;69.74;100769.43;454474;116;930483;-79
2022/02/26 00:04:12;;;;;;;28.41;19.52;;;;;;;7.07;69.74;100770.45;453237;115;922440;-79
2022/02/26 00:05:15;;;;;;;32.88;21.31;;;;;;;7.05;69.76;100758.98;460609;114;922360;-79
2022/02/26 00:06:20;;;;;;;31.42;21.75;;;;;;;7.04;69.80;100767.29;461772;114;930297;-79
2022/02/26 00:07:23;;;;;;;27.58;21.43;;;;;;;7.01;69.84;100760.36;459882;114;922922;-80
2022/02/26 00:08:27;;;;;;;30.12;22.26;;;;;;;7.00;69.92;100764.09;460309;114;922712;-79
2022/02/26 00:09:30;;;;;;;30.58;20.52;;;;;;;7.00;69.93;100761.38;460854;114;922480;-79
2022/02/26 00:10:33;;;;;;;26.95;21.41;;;;;;;7.00;69.95;100768.70;456948;114;922774;-80
2022/02/26 00:11:36;;;;;;;33.79;22.56;;;;;;;6.99;69.96;100761.59;460804;114;922761;-80
2022/02/26 00:12:39;;;;;;;29.11;20.45;;;;;;;6.99;70.04;100758.87;458195;114;922427;-79
2022/02/26 00:13:42;;;;;;;27.13;20.04;;;;;;;7.00;70.09;100757.86;459894;114;922958;-79
2022/02/26 00:14:45;;;;;;;27.34;21.23;;;;;;;7.00;70.09;100757.86;460148;114;922978;-79
2022/02/26 00:15:48;;;;;;;27.16;20.12;;;;;;;7.01;70.20;100760.36;448365;116;922661;-79
2022/02/26 00:16:52;;;;;;;32.08;21.30;;;;;;;7.01;70.20;100760.36;460808;114;922938;-79
2022/02/26 00:17:55;;;;;;;28.89;20.01;;;;;;;7.02;70.11;100761.20;462787;114;923047;-79
2022/02/26 00:18:58;;;;;;;29.72;20.36;;;;;;;7.02;70.10;100758.48;459920;114;922711;-79
2022/02/26 00:20:03;;;;;;;27.19;20.58;;;;;;;7.01;70.13;100760.36;461822;114;922889;-79
2022/02/26 00:21:08;;;;;;;32.10;19.96;;;;;;;7.03;70.13;100755.59;461370;114;922605;-79
2022/02/26 00:22:11;;;;;;;31.93;20.12;;;;;;;7.04;70.15;100757.29;460444;114;923011;-80
2022/02/26 00:23:16;;;;;;;25.26;19.37;;;;;;;7.05;70.17;100761.69;458335;113;922718;-79
2022/02/26 00:24:20;;;;;;;25.98;20.12;;;;;;;7.06;70.13;100759.79;461084;114;923004;-79
2022/02/26 00:25:23;;;;;;;25.93;20.43;;;;;;;7.07;70.12;100762.32;460392;114;922696;-79
2022/02/26 00:26:26;;;;;;;31.68;20.78;;;;;;;7.07;70.13;100764.19;457806;114;922640;-79
2022/02/26 00:27:30;;;;;;;25.78;20.52;;;;;;;7.07;70.12;100764.19;460026;114;922597;-79
2022/02/26 00:28:34;;;;;;;24.41;18.97;;;;;;;7.07;70.14;100759.61;462187;114;922872;-79
2022/02/26 00:29:37;;;;;;;30.10;20.15;;;;;;;7.08;70.14;100757.74;458938;114;922503;-79
2022/02/26 00:30:40;;;;;;;30.37;20.54;;;;;;;7.08;70.16;100761.30;451237;116;922942;-79
2022/02/26 00:31:43;;;;;;;27.94;19.37;;;;;;;7.09;70.17;100760.27;461470;114;922664;-79
2022/02/26 00:32:46;;;;;;;28.60;19.47;;;;;;;7.10;70.12;100761.12;459729;114;923041;-79
2022/02/26 00:33:51;;;;;;;27.95;18.52;;;;;;;7.10;70.08;100759.25;457367;114;923035;-79
2022/02/26 00:34:54;;;;;;;27.66;20.30;;;;;;;7.10;70.08;100752.98;460957;113;922545;-79
2022/02/26 00:35:59;;;;;;;25.77;19.66;;;;;;;7.10;70.14;100761.97;462213;114;922445;-78
2022/02/26 00:37:02;;;;;;;29.03;19.71;;;;;;;7.10;70.14;100755.70;459093;114;922526;-79
2022/02/26 00:38:06;;;;;;;31.76;20.49;;;;;;;7.11;70.13;100762.81;458367;114;922578;-79
2022/02/26 00:39:09;;;;;;;28.83;20.08;;;;;;;7.11;70.13;100750.06;460508;114;930347;-79
2022/02/26 00:40:14;;;;;;;24.54;19.86;;;;;;;7.10;70.13;100753.83;459157;114;922930;-79
2022/02/26 00:41:17;;;;;;;26.32;19.23;;;;;;;7.11;70.14;100751.96;460443;114;922642;-79
2022/02/26 00:42:22;;;;;;;29.24;21.11;;;;;;;7.11;70.11;100760.09;461430;114;922551;-79
2022/02/26 00:43:25;;;;;;;29.08;19.82;;;;;;;7.10;70.13;100759.25;459309;114;922600;-79
2022/02/26 00:44:28;;;;;;;28.11;20.65;;;;;;;7.09;70.11;100757.56;458027;114;922501;-79
2022/02/26 00:45:32;;;;;;;31.59;20.01;;;;;;;7.08;70.08;100752.32;460176;114;922482;-79
2022/02/26 00:46:35;;;;;;;26.35;19.94;;;;;;;7.07;70.10;100754.19;461033;114;922515;-79
2022/02/26 00:47:38;;;;;;;26.03;19.97;;;;;;;7.05;70.12;100758.98;458489;113;922461;-79
2022/02/26 00:50:05;;;;;;;36.88;21.07;;;;;;;7.01;70.23;100754.09;458726;114;922629;-79
2022/02/26 00:51:09;;;;;;;31.66;22.17;;;;;;;7.00;70.31;100757.86;459730;114;922610;-79
2022/02/26 00:52:14;;;;;;;32.63;20.95;;;;;;;7.00;70.41;100760.56;458390;114;922490;-80
2022/02/26 00:53:17;;;;;;;30.88;20.22;;;;;;;7.00;70.38;100750.53;459994;114;930628;-79
2022/02/26 00:54:20;;;;;;;30.77;20.87;;;;;;;7.00;70.37;100761.38;459191;114;930424;-79
2022/02/26 00:55:25;;;;;;;29.98;21.73;;;;;;;7.00;70.36;100753.25;460243;113;922613;-79
2022/02/26 00:56:29;;;;;;;30.06;21.78;;;;;;;7.00;70.35;100753.25;459418;114;922437;-79
2022/02/26 00:57:32;;;;;;;34.41;21.77;;;;;;;6.99;70.42;100753.45;461965;114;922419;-78
2022/02/26 00:58:36;;;;;;;29.52;21.13;;;;;;;7.00;70.40;100755.95;458678;114;922681;-78
2022/02/26 00:59:39;;;;;;;35.28;22.06;;;;;;;6.99;70.43;100753.45;459747;114;922585;-78
2022/02/26 01:00:42;;;;;;;30.79;21.01;;;;;;;7.00;70.40;100753.25;457989;114;922950;-79
2022/02/26 01:01:47;;;;;;;35.45;21.96;;;;;;;7.00;70.42;100753.25;459685;114;922455;-79
2022/02/26 01:02:51;;;;;;;39.71;23.35;;;;;;;7.00;70.41;100752.44;460012;113;922840;-77
2022/02/26 01:03:55;;;;;;;33.36;22.62;;;;;;;6.99;70.46;100746.17;458529;114;922922;-74
2022/02/26 01:04:58;;;;;;;32.63;22.19;;;;;;;7.00;70.49;100749.72;457338;114;922935;-76
2022/02/26 01:06:02;;;;;;;37.71;22.40;;;;;;;7.01;70.50;100748.67;444938;118;922951;-76
2022/02/26 01:07:06;;;;;;;43.84;24.14;;;;;;;7.01;70.46;100754.09;448257;118;923202;-76
2022/02/26 01:08:09;;;;;;;47.49;25.14;;;;;;;7.01;70.46;100749.52;436251;120;922768;-76
2022/02/26 01:09:12;;;;;;;41.52;25.85;;;;;;;7.01;70.43;100752.22;444947;118;922766;-76
2022/02/26 01:10:16;;;;;;;48.72;26.06;;;;;;;7.02;70.38;100750.36;437070;120;922646;-76
2022/02/26 01:11:19;;;;;;;43.63;25.14;;;;;;;7.01;70.43;100744.09;444085;118;922872;-75
2022/02/26 01:12:22;;;;;;;44.67;26.57;;;;;;;7.02;70.46;100750.36;442890;118;923380;-75
2022/02/26 01:13:26;;;;;;;40.24;25.02;;;;;;;7.01;70.46;100745.95;445143;118;922570;-76
2022/02/26 01:14:31;;;;;;;45.11;25.04;;;;;;;7.03;70.47;100743.91;434145;120;923097;-76
2022/02/26 01:15:35;;;;;;;45.46;27.62;;;;;;;7.03;70.29;100744.75;445674;118;922724;-77
2022/02/26 01:16:38;;;;;;;44.84;26.49;;;;;;;7.03;70.46;100742.05;445614;118;922781;-76
2022/02/26 01:17:42;;;;;;;43.61;27.02;;;;;;;7.05;70.46;100750.00;441959;118;922498;-76
2022/02/26 01:18:45;;;;;;;39.11;25.17;;;;;;;7.05;70.43;100739.16;442512;118;922644;-76
2022/02/26 01:19:49;;;;;;;40.66;25.83;;;;;;;7.04;70.40;100734.75;435568;120;922539;-76
2022/02/26 01:20:52;;;;;;;36.85;24.14;;;;;;;7.03;70.33;100735.78;442017;118;922998;-76
2022/02/26 01:21:57;;;;;;;34.38;23.95;;;;;;;7.01;70.22;100732.41;443039;118;922699;-75
2022/02/26 01:23:00;;;;;;;39.46;25.55;;;;;;;7.01;70.46;100730.53;433887;120;922659;-76
2022/02/26 01:24:04;;;;;;;36.91;24.51;;;;;;;7.01;70.45;100733.25;443065;118;923068;-75
2022/02/26 01:25:07;;;;;;;35.84;23.81;;;;;;;7.03;70.46;100733.91;448642;118;922774;-76
2022/02/26 01:26:11;;;;;;;41.83;24.73;;;;;;;7.03;70.45;100736.62;438366;120;922566;-75
2022/02/26 01:27:14;;;;;;;43.74;23.76;;;;;;;7.03;70.42;100736.62;443107;118;930647;-76
2022/02/26 01:28:18;;;;;;;44.39;25.77;;;;;;;7.04;70.38;100746.44;446518;118;930609;-76
2022/02/26 01:29:21;;;;;;;44.76;26.24;;;;;;;7.05;70.36;100736.45;427595;121;922767;-76
2022/02/26 01:30:26;;;;;;;42.74;25.31;;;;;;;7.04;70.34;100745.60;443506;115;923116;-76
2022/02/26 01:31:29;;;;;;;44.77;26.99;;;;;;;7.04;70.35;100745.60;454353;115;923066;-76
2022/02/26 01:32:32;;;;;;;42.65;26.15;;;;;;;7.03;70.33;100738.48;458739;115;922681;-76
2022/02/26 01:33:36;;;;;;;44.15;26.07;;;;;;;7.02;70.31;100742.22;455617;115;930124;-75
2022/02/26 01:34:39;;;;;;;42.64;25.68;;;;;;;7.01;70.31;100741.38;453355;115;923044;-75
2022/02/26 01:35:43;;;;;;;42.52;25.53;;;;;;;6.99;70.31;100746.17;455787;115;922891;-75
2022/02/26 01:36:46;;;;;;;42.05;27.32;;;;;;;7.00;70.34;100747.02;453266;115;922527;-76
2022/02/26 01:37:49;;;;;;;42.25;25.79;;;;;;;6.99;70.38;100743.45;447037;117;930646;-76
2022/02/26 01:38:53;;;;;;;36.45;25.12;;;;;;;7.00;70.37;100745.11;446616;117;930587;-75
2022/02/26 01:39:56;;;;;;;38.08;26.23;;;;;;;7.00;70.40;100745.11;455047;115;922602;-75
2022/02/26 01:41:00;;;;;;;42.62;26.29;;;;;;;7.00;70.39;100747.83;454756;115;922607;-75
2022/02/26 01:42:04;;;;;;;42.89;25.14;;;;;;;7.02;70.43;100747.64;458545;115;922873;-75
2022/02/26 01:43:07;;;;;;;37.22;24.12;;;;;;;7.02;70.43;100753.06;453543;115;922626;-76
2022/02/26 01:44:10;;;;;;;36.53;24.59;;;;;;;7.02;70.41;100747.64;455035;115;922557;-76
2022/02/26 01:45:17;;;;;;;34.38;23.90;;;;;;;7.03;70.37;100747.47;454779;115;923039;-75
2022/02/26 01:46:21;;;;;;;43.03;24.27;;;;;;;7.03;70.33;100752.89;456123;115;922547;-75
2022/02/26 01:47:24;;;;;;;39.15;25.35;;;;;;;7.03;70.31;100750.17;457046;115;922619;-75
2022/02/26 01:48:29;;;;;;;43.56;23.71;;;;;;;7.04;70.28;100754.58;453531;115;922523;-75
2022/02/26 01:49:32;;;;;;;35.68;23.50;;;;;;;7.04;70.25;100751.87;456963;115;923149;-75
2022/02/26 01:50:36;;;;;;;37.60;23.41;;;;;;;7.07;70.22;100756.05;454646;115;923069;-75
2022/02/26 01:51:41;;;;;;;36.77;22.72;;;;;;;7.06;70.20;100757.92;453920;115;922649;-75
2022/02/26 01:52:44;;;;;;;40.46;24.41;;;;;;;7.07;70.15;100758.77;456626;115;922674;-75
2022/02/26 01:53:47;;;;;;;41.24;22.89;;;;;;;7.05;70.09;100758.98;456419;115;923286;-76
2022/02/26 01:54:51;;;;;;;37.37;22.60;;;;;;;7.05;70.03;100758.13;453079;115;922851;-76
2022/02/26 01:55:54;;;;;;;37.94;23.38;;;;;;;7.03;70.00;100758.31;455860;115;922967;-76
2022/02/26 01:56:57;;;;;;;41.41;24.34;;;;;;;7.01;69.97;100762.22;455551;115;923024;-76
2022/02/26 01:58:00;;;;;;;35.74;23.14;;;;;;;6.99;70.00;100758.87;458094;115;930578;-76
2022/02/26 01:59:04;;;;;;;34.63;22.82;;;;;;;6.96;69.98;100756.52;452384;115;923024;-76
2022/02/26 02:00:10;;;;;;;39.52;22.91;;;;;;;6.94;70.01;100759.45;452668;115;922698;-77
2022/02/26 02:01:13;;;;;;;37.99;24.32;;;;;;;6.94;70.07;100759.45;455613;115;930518;-73
2022/02/26 02:02:17;;;;;;;41.55;23.60;;;;;;;6.92;70.02;100763.36;454843;115;922604;-75
2022/02/26 02:03:20;;;;;;;38.67;23.91;;;;;;;6.90;70.06;100760.83;455542;115;930452;-75
2022/02/26 02:04:23;;;;;;;46.59;26.10;;;;;;;6.90;70.13;100765.40;457906;115;923196;-74
2022/02/26 02:05:29;;;;;;;40.09;23.53;;;;;;;6.90;70.15;100765.40;456390;114;922877;-75
2022/02/26 02:06:32;;;;;;;40.48;23.68;;;;;;;6.89;70.18;100764.55;459622;114;922425;-73
2022/02/26 02:07:35;;;;;;;37.91;23.90;;;;;;;6.88;70.18;100765.61;461108;114;922888;-76
2022/02/26 02:08:40;;;;;;;43.72;24.79;;;;;;;6.87;70.09;100768.50;458490;114;922544;-74
2022/02/26 02:09:44;;;;;;;38.74;24.32;;;;;;;6.84;70.11;100766.98;458705;114;922558;-74
2022/02/26 02:10:50;;;;;;;39.69;24.85;;;;;;;6.83;70.07;100761.77;458987;114;923139;-75
2022/02/26 02:11:53;;;;;;;40.32;24.01;;;;;;;6.81;70.20;100761.11;458491;114;922696;-72
2022/02/26 02:12:58;;;;;;;41.64;25.37;;;;;;;6.79;70.17;100764.00;459386;113;922555;-74
2022/02/26 02:14:01;;;;;;;39.16;24.65;;;;;;;6.77;70.19;100762.52;458883;114;923075;-76
2022/02/26 02:15:07;;;;;;;42.92;24.69;;;;;;;6.73;70.19;100766.63;459181;114;922529;-76
2022/02/26 02:16:10;;;;;;;41.02;24.54;;;;;;;6.69;70.24;100760.72;457970;113;922442;-73
2022/02/26 02:17:13;;;;;;;41.18;23.87;;;;;;;6.66;70.35;100759.23;457530;113;923210;-76
2022/02/26 02:18:17;;;;;;;46.86;25.13;;;;;;;6.64;70.40;100766.70;457385;114;922509;-76
2022/02/26 02:19:20;;;;;;;45.31;24.99;;;;;;;6.62;70.39;100760.61;462135;114;922729;-76
2022/02/26 02:20:23;;;;;;;42.58;25.21;;;;;;;6.61;70.47;100763.53;459052;114;930587;-75
2022/02/26 02:21:27;;;;;;;46.30;25.08;;;;;;;6.60;70.52;100759.13;458920;114;922492;-74
2022/02/26 02:22:30;;;;;;;35.36;23.76;;;;;;;6.57;70.57;100765.75;458638;114;930544;-75
2022/02/26 02:23:33;;;;;;;49.38;26.71;;;;;;;6.55;70.60;100765.11;459243;114;922536;-75
2022/02/26 02:24:37;;;;;;;43.09;25.13;;;;;;;6.54;70.64;100760.71;457934;114;922612;-75
2022/02/26 02:25:41;;;;;;;38.95;24.39;;;;;;;6.53;70.74;100766.30;459999;114;922492;-75
2022/02/26 02:26:45;;;;;;;43.04;25.31;;;;;;;6.52;70.78;100770.03;456858;114;930634;-75
2022/02/26 02:27:50;;;;;;;41.77;25.46;;;;;;;6.52;70.82;100778.16;459578;114;922555;-74
2022/02/26 02:28:54;;;;;;;41.08;25.04;;;;;;;6.52;70.89;100773.59;458690;114;922581;-73
2022/02/26 02:29:57;;;;;;;41.95;23.91;;;;;;;6.53;70.90;100769.02;458485;114;923516;-76
2022/02/26 02:31:00;;;;;;;40.90;23.96;;;;;;;6.53;70.90;100772.56;461393;114;922586;-74
2022/02/26 02:32:05;;;;;;;40.71;23.00;;;;;;;6.53;70.99;100775.28;458150;114;922864;-75
2022/02/26 02:33:09;;;;;;;45.52;24.30;;;;;;;6.54;70.93;100767.99;458064;113;930562;-75
2022/02/26 02:34:12;;;;;;;40.41;23.78;;;;;;;6.55;70.95;100769.68;459310;114;930401;-75
2022/02/26 02:35:31;;;;;;;36.34;23.63;;;;;;;6.55;70.90;100772.39;459614;114;930466;-73
2022/02/26 02:36:45;;;;;;;34.07;23.64;;;;;;;6.54;70.85;100771.55;459561;113;922806;-74
2022/02/26 02:37:49;;;;;;;42.58;24.53;;;;;;;6.51;70.78;100773.77;460091;114;922936;-74
2022/02/26 02:38:54;;;;;;;40.30;24.50;;;;;;;6.48;70.84;100774.14;459013;114;922551;-74
2022/02/26 02:39:57;;;;;;;46.41;23.58;;;;;;;6.45;70.86;100772.63;459331;113;923077;-74
2022/02/26 02:41:03;;;;;;;36.89;24.00;;;;;;;6.43;70.89;100776.56;458865;114;930773;-75
2022/02/26 02:42:07;;;;;;;43.69;24.58;;;;;;;6.41;70.93;100778.59;460080;114;922895;-75
2022/02/26 02:43:11;;;;;;;40.41;23.63;;;;;;;6.39;70.96;100776.09;460210;113;930636;-74
2022/02/26 02:44:14;;;;;;;36.22;23.30;;;;;;;6.37;70.98;100775.42;459054;114;930646;-75
2022/02/26 02:45:18;;;;;;;41.76;23.88;;;;;;;6.36;70.99;100783.73;459527;114;922596;-74
2022/02/26 02:46:21;;;;;;;36.11;23.21;;;;;;;6.34;71.04;100783.09;460010;114;922887;-76
2022/02/26 02:47:25;;;;;;;39.63;24.24;;;;;;;6.32;71.07;100785.13;459151;114;930488;-74
2022/02/26 02:48:28;;;;;;;32.69;22.64;;;;;;;6.28;71.10;100780.05;460224;114;922516;-75
2022/02/26 02:49:32;;;;;;;33.86;22.96;;;;;;;6.27;71.15;100780.26;463397;114;922440;-75
2022/02/26 02:50:36;;;;;;;41.22;23.40;;;;;;;6.25;71.16;100776.88;457927;114;922705;-74
2022/02/26 02:51:39;;;;;;;35.34;23.08;;;;;;;6.23;71.33;100785.17;457295;114;922890;-76
2022/02/26 02:52:44;;;;;;;34.97;23.35;;;;;;;6.23;71.32;100774.34;461299;114;930534;-74
2022/02/26 02:53:47;;;;;;;34.89;23.66;;;;;;;6.21;71.24;100776.41;461508;113;930563;-76
2022/02/26 02:54:50;;;;;;;31.56;21.96;;;;;;;6.19;71.36;100778.45;457674;114;922933;-74
2022/02/26 02:55:54;;;;;;;31.81;21.82;;;;;;;6.20;71.44;100782.00;459129;114;930426;-75
2022/02/26 02:56:59;;;;;;;38.48;23.14;;;;;;;6.20;71.48;100773.88;459878;114;922599;-76
2022/02/26 02:58:02;;;;;;;34.98;22.89;;;;;;;6.20;71.47;100774.72;459491;113;923603;-75
2022/02/26 02:59:05;;;;;;;30.19;22.44;;;;;;;6.20;71.41;100776.59;458257;114;922917;-74
2022/02/26 03:00:09;;;;;;;33.98;22.84;;;;;;;6.19;71.47;100777.60;459757;114;930777;-75
2022/02/26 03:01:13;;;;;;;32.99;22.89;;;;;;;6.18;71.40;100778.63;457792;114;922776;-75
2022/02/26 03:02:16;;;;;;;36.68;23.21;;;;;;;6.17;71.57;100783.22;459003;114;922662;-76
2022/02/26 03:03:20;;;;;;;37.96;22.91;;;;;;;6.18;71.62;100781.33;460107;114;922630;-73
2022/02/26 03:04:23;;;;;;;34.17;22.84;;;;;;;6.20;71.66;100784.70;459816;114;930924;-75
2022/02/26 03:05:26;;;;;;;29.22;22.52;;;;;;;6.22;71.61;100779.97;458602;114;922625;-74
2022/02/26 03:06:31;;;;;;;39.21;23.32;;;;;;;6.22;71.57;100779.97;460578;114;922508;-74
2022/02/26 03:07:35;;;;;;;34.91;23.79;;;;;;;6.23;71.58;100784.33;459512;114;930535;-75
2022/02/26 03:08:38;;;;;;;33.21;22.45;;;;;;;6.25;71.59;100785.00;460593;114;922563;-75
2022/02/26 03:09:41;;;;;;;31.59;22.58;;;;;;;6.27;71.58;100788.38;458628;114;922641;-74
2022/02/26 03:10:44;;;;;;;35.21;22.74;;;;;;;6.31;71.55;100791.55;461408;114;923361;-74
2022/02/26 03:11:47;;;;;;;32.94;23.81;;;;;;;6.32;71.49;100790.54;460459;113;922501;-74
2022/02/26 03:12:51;;;;;;;35.66;22.55;;;;;;;6.33;71.48;100787.66;459304;114;922951;-76
2022/02/26 03:13:54;;;;;;;35.97;22.35;;;;;;;6.35;71.43;100791.00;459707;114;922943;-74
2022/02/26 03:14:57;;;;;;;33.57;23.31;;;;;;;6.38;71.44;100795.23;460267;114;930453;-75
2022/02/26 03:16:01;;;;;;;32.96;23.01;;;;;;;6.41;71.41;100792.14;461853;113;923038;-75
2022/02/26 03:17:05;;;;;;;36.89;23.18;;;;;;;6.43;71.33;100795.52;461879;114;922919;-75
2022/02/26 03:18:09;;;;;;;32.76;22.56;;;;;;;6.45;71.27;100794.30;462255;114;922534;-75
2022/02/26 03:19:13;;;;;;;28.47;21.99;;;;;;;6.48;71.19;100798.52;457963;114;930597;-75
2022/02/26 03:20:17;;;;;;;29.41;21.41;;;;;;;6.50;71.12;100793.77;459146;114;922650;-76
2022/02/26 03:21:21;;;;;;;30.72;21.74;;;;;;;6.50;71.04;100786.49;461054;114;930606;-74
2022/02/26 03:22:24;;;;;;;35.82;23.87;;;;;;;6.53;70.78;100793.39;460937;114;922600;-72
2022/02/26 03:23:27;;;;;;;34.95;23.22;;;;;;;6.54;70.80;100784.25;460642;113;930653;-74
2022/02/26 03:24:31;;;;;;;38.61;24.42;;;;;;;6.53;70.71;100794.23;461855;114;922964;-73
2022/02/26 03:25:35;;;;;;;34.39;23.27;;;;;;;6.53;70.66;100785.27;458057;114;922515;-73
2022/02/26 03:26:38;;;;;;;35.28;22.39;;;;;;;6.53;70.57;100786.11;461718;114;922611;-78
2022/02/26 03:27:41;;;;;;;37.04;23.80;;;;;;;6.51;70.45;100781.89;459925;114;922410;-74
2022/02/26 03:28:45;;;;;;;40.44;24.37;;;;;;;6.49;70.42;100786.66;463249;114;930583;-72
2022/02/26 03:29:48;;;;;;;34.97;23.33;;;;;;;6.44;70.37;100781.80;459694;114;922504;-75
2022/02/26 03:30:51;;;;;;;33.85;23.25;;;;;;;6.40;70.41;100787.74;458607;114;922889;-75
2022/02/26 03:31:55;;;;;;;32.49;23.54;;;;;;;6.36;70.46;100789.98;461737;114;922487;-75
2022/02/26 03:32:58;;;;;;;42.72;25.27;;;;;;;6.34;70.58;100783.09;458621;113;923393;-75
2022/02/26 03:34:01;;;;;;;37.51;23.91;;;;;;;6.33;70.54;100789.52;457555;114;922567;-75
2022/02/26 03:35:05;;;;;;;33.09;22.62;;;;;;;6.31;70.57;100789.69;458212;114;922907;-74
2022/02/26 03:36:10;;;;;;;39.73;23.53;;;;;;;6.29;70.60;100792.58;460758;114;922724;-74
2022/02/26 03:37:14;;;;;;;39.90;23.87;;;;;;;6.27;70.64;100785.67;459243;114;922574;-75
2022/02/26 03:38:17;;;;;;;37.79;25.04;;;;;;;6.25;70.66;100788.55;460297;113;922567;-74
2022/02/26 03:39:21;;;;;;;32.14;22.63;;;;;;;6.23;70.60;100782.47;460898;114;922827;-73
2022/02/26 03:40:26;;;;;;;41.38;25.15;;;;;;;6.21;70.66;100794.52;461420;113;922584;-76
2022/02/26 03:41:29;;;;;;;46.60;25.21;;;;;;;6.18;70.70;100790.30;458306;114;923735;-75
2022/02/26 03:42:32;;;;;;;40.50;25.05;;;;;;;6.18;70.82;100787.59;459835;114;923194;-75
2022/02/26 03:43:36;;;;;;;37.39;23.36;;;;;;;6.18;70.82;100786.74;461114;114;922838;-74
2022/02/26 03:44:40;;;;;;;42.92;27.19;;;;;;;6.18;70.86;100787.59;459587;113;922621;-75
2022/02/26 03:45:44;;;;;;;40.14;24.54;;;;;;;6.17;70.90;100785.94;459904;114;922674;-74
2022/02/26 03:46:47;;;;;;;37.64;24.54;;;;;;;6.18;70.92;100784.03;457696;114;923031;-74
2022/02/26 03:47:50;;;;;;;45.28;25.43;;;;;;;6.19;70.95;100783.02;461098;114;922844;-75
2022/02/26 03:48:53;;;;;;;41.99;25.17;;;;;;;6.19;70.98;100783.86;460017;114;922854;-74
2022/02/26 03:49:56;;;;;;;41.23;23.91;;;;;;;6.20;70.99;100782.84;448845;116;923064;-74
2022/02/26 03:51:05;;;;;;;40.72;25.06;;;;;;;6.22;71.07;100780.81;452222;114;922857;-74
2022/02/26 03:52:08;;;;;;;41.06;24.79;;;;;;;6.24;71.00;100781.45;460157;114;922593;-74
2022/02/26 03:53:11;;;;;;;40.94;25.39;;;;;;;6.26;70.86;100789.40;459220;114;922748;-74
2022/02/26 03:54:17;;;;;;;39.99;24.27;;;;;;;6.25;70.87;100788.55;458129;114;922694;-75
2022/02/26 03:55:20;;;;;;;39.07;24.65;;;;;;;6.25;70.84;100788.55;459840;114;922945;-75
2022/02/26 03:56:23;;;;;;;35.59;24.54;;;;;;;6.25;70.81;100783.14;458671;114;922575;-76
2022/02/26 03:57:26;;;;;;;40.54;24.17;;;;;;;6.25;70.82;100790.42;462793;114;925569;-75
2022/02/26 03:58:30;;;;;;;41.36;25.07;;;;;;;6.26;70.85;100789.40;461597;114;930573;-75
2022/02/26 03:59:33;;;;;;;38.35;24.47;;;;;;;6.27;70.81;100791.94;459539;114;922461;-74
2022/02/26 04:00:38;;;;;;;37.96;24.26;;;;;;;6.27;70.76;100783.81;458184;114;922912;-73
2022/02/26 04:01:41;;;;;;;36.17;23.69;;;;;;;6.27;70.66;100785.67;458947;114;923049;-72
2022/02/26 04:02:45;;;;;;;34.42;23.72;;;;;;;6.26;70.59;100794.81;462241;114;922528;-75
2022/02/26 04:03:49;;;;;;;43.86;26.41;;;;;;;6.24;70.64;100789.58;458005;113;922937;-76
2022/02/26 04:04:53;;;;;;;41.28;24.25;;;;;;;6.24;70.67;100791.44;459514;114;922621;-73
2022/02/26 04:05:56;;;;;;;38.21;24.19;;;;;;;6.25;70.69;100798.54;459682;114;922753;-73
2022/02/26 04:06:59;;;;;;;42.59;25.16;;;;;;;6.24;70.61;100800.41;460244;114;922646;-73
2022/02/26 04:08:03;;;;;;;45.92;25.56;;;;;;;6.24;70.62;100803.11;461257;113;922678;-73
2022/02/26 04:09:05;;;;;;;38.54;24.52;;;;;;;6.24;70.63;100802.27;462133;114;922527;-73
2022/02/26 04:10:10;;;;;;;39.69;25.14;;;;;;;6.24;70.61;100805.82;458605;113;922712;-75
2022/02/26 04:11:13;;;;;;;43.35;26.68;;;;;;;6.23;70.54;100800.58;459836;114;930541;-74
2022/02/26 04:12:17;;;;;;;37.01;24.36;;;;;;;6.20;70.58;100812.63;460901;114;922692;-75
2022/02/26 04:13:21;;;;;;;46.00;25.69;;;;;;;6.19;70.57;100807.38;462529;114;922503;-75
2022/02/26 04:14:24;;;;;;;42.67;25.88;;;;;;;6.17;70.62;100813.00;459176;114;922552;-73
2022/02/26 04:15:27;;;;;;;42.68;26.58;;;;;;;6.16;70.71;100822.14;458010;114;922432;-75
2022/02/26 04:16:31;;;;;;;39.26;26.01;;;;;;;6.15;70.70;100817.75;461535;114;922930;-75
2022/02/26 04:17:34;;;;;;;43.18;26.68;;;;;;;6.15;70.62;100825.02;460489;114;922553;-74
2022/02/26 04:18:37;;;;;;;38.84;25.73;;;;;;;6.14;70.57;100817.91;458873;114;930510;-75
2022/02/26 04:19:41;;;;;;;43.92;26.20;;;;;;;6.11;70.60;100821.84;461444;114;922861;-74
2022/02/26 04:20:44;;;;;;;41.76;24.12;;;;;;;6.10;70.60;100822.02;464235;114;922683;-74
2022/02/26 04:21:47;;;;;;;40.97;25.61;;;;;;;6.08;70.65;100827.59;458927;114;922971;-73
2022/02/26 04:22:51;;;;;;;34.52;23.68;;;;;;;6.06;70.72;100823.41;460711;113;922862;-74
2022/02/26 04:23:54;;;;;;;36.87;25.46;;;;;;;6.05;70.52;100822.56;458354;114;923459;-73
2022/02/26 04:24:57;;;;;;;42.32;25.76;;;;;;;6.05;70.78;100829.84;457714;114;923131;-74
2022/02/26 04:26:00;;;;;;;34.48;24.35;;;;;;;6.04;70.75;100828.98;459073;114;923075;-73
2022/02/26 04:27:04;;;;;;;42.39;25.37;;;;;;;6.03;70.76;100832.71;460415;114;922742;-74
2022/02/26 04:28:07;;;;;;;41.23;25.06;;;;;;;6.02;70.78;100832.88;459167;113;922490;-75
2022/02/26 04:29:11;;;;;;;35.34;23.69;;;;;;;5.99;70.81;100825.98;459270;114;930396;-73
2022/02/26 04:30:15;;;;;;;40.83;25.54;;;;;;;6.01;70.88;100829.33;459796;114;922505;-75
2022/02/26 04:31:19;;;;;;;35.51;25.43;;;;;;;6.01;70.90;100834.74;458977;114;923016;-74
2022/02/26 04:32:22;;;;;;;38.46;23.82;;;;;;;6.01;70.87;100836.64;460454;113;922928;-74
2022/02/26 04:33:28;;;;;;;36.09;24.17;;;;;;;6.01;70.89;100834.74;459965;113;922549;-73
2022/02/26 04:34:32;;;;;;;32.95;23.58;;;;;;;6.01;70.88;100839.34;458562;114;923172;-74
2022/02/26 04:35:36;;;;;;;36.91;24.22;;;;;;;6.00;70.90;100833.09;461240;114;922925;-74
2022/02/26 04:36:40;;;;;;;32.48;23.08;;;;;;;6.00;70.82;100841.20;459863;113;930585;-74
2022/02/26 04:37:43;;;;;;;33.87;23.05;;;;;;;5.98;70.80;100840.53;459134;114;922649;-74
2022/02/26 04:38:46;;;;;;;33.33;22.93;;;;;;;5.97;70.81;100851.52;459486;114;923093;-75
2022/02/26 04:39:50;;;;;;;32.21;23.72;;;;;;;5.94;70.81;100852.73;460047;113;922538;-74
2022/02/26 04:40:53;;;;;;;32.54;23.45;;;;;;;5.90;70.83;100843.27;463078;114;930650;-74
2022/02/26 04:41:56;;;;;;;34.19;23.41;;;;;;;5.88;70.98;100856.16;460872;114;922732;-75
2022/02/26 04:42:59;;;;;;;34.27;23.96;;;;;;;5.86;71.05;100850.87;459899;114;923149;-76
2022/02/26 04:44:03;;;;;;;34.73;24.56;;;;;;;5.86;71.15;100853.59;460141;114;922524;-73
2022/02/26 04:45:08;;;;;;;39.35;23.64;;;;;;;5.88;71.19;100852.60;458106;114;923091;-73
2022/02/26 04:46:13;;;;;;;32.70;23.40;;;;;;;5.89;71.25;100863.26;458662;114;922881;-76
2022/02/26 04:47:16;;;;;;;30.23;22.80;;;;;;;5.91;71.29;100858.49;460642;114;922559;-76
2022/02/26 04:48:19;;;;;;;34.24;23.19;;;;;;;5.92;71.22;100865.59;459162;114;922482;-73
2022/02/26 04:49:22;;;;;;;28.30;21.84;;;;;;;5.94;71.19;100860.86;460020;114;930688;-73
2022/02/26 04:50:26;;;;;;;29.17;22.66;;;;;;;5.94;71.15;100862.72;461495;114;922536;-75
2022/02/26 04:51:29;;;;;;;35.60;22.79;;;;;;;5.93;71.07;100859.17;460409;114;922585;-75